METAR Data
IDs: Format: Raw Decoded Include TAF

Data at: 2126 UTC 24 Mar 2019

KBKD 242115Z AUTO 28007KT 7SM SCT070 29/10 A2996 RMK AO2 T02930095
KBKD 242055Z AUTO 30007G14KT 270V330 7SM BKN070 29/09 A2996 RMK AO2 T02890094
KBKD 242035Z AUTO 24009KT 210V270 7SM SCT060 SCT075 29/11 A2997 RMK AO2 T02900110
KBKD 242015Z AUTO 25010G15KT 7SM SCT060 28/11 A2998 RMK AO2 T02830108
KBKD 241955Z AUTO 27010G15KT 7SM SCT060 29/11 A2998 RMK AO2 T02890108
KBKD 241935Z AUTO 27008KT 7SM SCT050 28/13 A2999 RMK AO2 T02760127
KBKD 241915Z AUTO 27008G14KT 7SM SCT050 27/13 A3000 RMK AO2 T02700128
KBKD 241855Z AUTO 25006KT 10SM SCT050 28/13 A3000 RMK AO2 T02780134
KBKD 241835Z AUTO 27009G16KT 7SM SCT044 27/14 A3001 RMK AO2 T02700139
KBKD 241815Z AUTO 27011G16KT 5SM HZ BKN042 27/14 A3001 RMK AO2 T02690139
KBKD 241755Z AUTO 22010G14KT 5SM HZ SCT039 26/15 A3002 RMK AO2 T02640152 10264 20166
KBKD 241735Z AUTO 24011KT 5SM HZ SCT035 26/15 A3003 RMK AO2 T02570150
KBKD 241715Z AUTO 23011G17KT 5SM HZ SCT033 25/15 A3004 RMK AO2 T02520148
KBKD 241655Z AUTO 26013G17KT 5SM HZ SCT031 25/15 A3004 RMK AO2 T02500149
KBKD 241635Z AUTO 24012G17KT 7SM CLR 25/15 A3004 RMK AO2 T02450149
KBKD 241615Z AUTO 26014KT 10SM SCT030 24/15 A3005 RMK AO2 T02420153
KBKD 241555Z AUTO 23010G18KT 10SM CLR 23/15 A3005 RMK AO2 T02300150
KBKD 241535Z AUTO 22013G19KT 10SM CLR 22/15 A3004 RMK AO2 T02230148
KBKD 241515Z AUTO 22012G22KT 10SM CLR 22/15 A3004 RMK AO2 T02240152
KBKD 241455Z AUTO 22013G21KT 10SM CLR 22/15 A3003 RMK AO2 T02170151
KBKD 241435Z AUTO 21010G14KT 10SM CLR 21/15 A3003 RMK AO2 T02090153
KBKD 241415Z AUTO 20007KT 10SM CLR 20/15 A3003 RMK AO2 T01970153
KBKD 241355Z AUTO 20009KT 10SM CLR 19/16 A3002 RMK AO2 T01900162
KBKD 241335Z AUTO 20010KT 10SM CLR 18/16 A3001 RMK AO2 T01810160
KBKD 241315Z AUTO 20008G15KT 10SM CLR 18/16 A3001 RMK AO2 T01750159
KBKD 241255Z AUTO 19008KT 10SM CLR 17/16 A3000 RMK AO2 T01690157
KBKD 241235Z AUTO 19009KT 10SM CLR 17/16 A3000 RMK AO2 T01670156
KBKD 241215Z AUTO 19008KT 10SM CLR 17/16 A2999 RMK AO2 T01660155
KBKD 241155Z AUTO 19008KT 10SM CLR 17/16 A2999 RMK AO2 T01660155 10177 20164
KBKD 241135Z AUTO 19007KT 10SM CLR 17/16 A2999 RMK AO2 T01660155
KBKD 241115Z AUTO 19007KT 10SM CLR 17/16 A2999 RMK AO2 T01650155
KBKD 241055Z AUTO 19007KT 10SM CLR 17/16 A2999 RMK AO2 T01670155
KBKD 241035Z AUTO 20007KT 10SM CLR 17/16 A2998 RMK AO2 T01700155
KBKD 241015Z AUTO 20008KT 10SM CLR 17/16 A2998 RMK AO2 T01700156
KBKD 240955Z AUTO 20008KT 10SM CLR 17/16 A2998 RMK AO2 T01700155
KBKD 240935Z AUTO 20007KT 10SM CLR 17/16 A2998 RMK AO2 T01700155
KBKD 240915Z AUTO 19008KT 10SM CLR 17/16 A2998 RMK AO2 T01710155
KBKD 240855Z AUTO 18009KT 10SM CLR 18/16 A2998 RMK AO2 T01750157
KBKD 240835Z AUTO 19010KT 10SM CLR 17/16 A2998 RMK AO2 T01730158
KBKD 240810Z AUTO 19010KT 10SM CLR 18/16 A2999 RMK AO2 T01750160
KBKD 240755Z AUTO 18010KT 10SM CLR 18/16 A3000 RMK AO2 T01750160
KBKD 240735Z AUTO 18009KT 10SM CLR 17/16 A3000 RMK AO2 T01740160
KBKD 240715Z AUTO 19010KT 10SM CLR 18/16 A2999 RMK AO2 T01750160
KBKD 240655Z AUTO 19010KT 10SM CLR 18/16 A2999 RMK AO2 T01750159
KBKD 240635Z AUTO 19010KT 10SM CLR 18/15 A2999 RMK AO2 T01770153
KBKD 240615Z AUTO 19011KT 10SM CLR 18/15 A2999 RMK AO2 T01770152
KBKD 240555Z AUTO 18010KT 10SM CLR 18/15 A3000 RMK AO2 T01770150 10235 20176 402680166
KBKD 240535Z AUTO 17007KT 10SM CLR 18/15 A3000 RMK AO2 T01770148
KBKD 240515Z AUTO 16007KT 10SM CLR 18/15 A3000 RMK AO2 T01770147
KBKD 240455Z AUTO 16007KT 10SM CLR 18/15 A3000 RMK AO2 T01800147
KBKD 240435Z AUTO 16007KT 10SM CLR 18/15 A3000 RMK AO2 T01830147
KBKD 240415Z AUTO 16007KT 10SM CLR 19/15 A3000 RMK AO2 T01880148
KBKD 240355Z AUTO 16008KT 10SM CLR 19/15 A2999 RMK AO2 T01910148
KBKD 240335Z AUTO 17010KT 10SM CLR 20/15 A2998 RMK AO2 T01950148
KBKD 240315Z AUTO 16009G14KT 10SM CLR 20/15 A2997 RMK AO2 T01950146
KBKD 240255Z AUTO 16009KT 10SM CLR 20/15 A2997 RMK AO2 T02000145
KBKD 240235Z AUTO 16011KT 10SM CLR 20/15 A2997 RMK AO2 T02030145
KBKD 240215Z AUTO 17009KT 10SM CLR 21/14 A2995 RMK AO2 T02070143
KBKD 240155Z AUTO 16012G16KT 10SM CLR 21/14 A2994 RMK AO2 T02120143
KBKD 240135Z AUTO 16009KT 10SM CLR 22/15 A2994 RMK AO2 T02170145
KBKD 240115Z AUTO 15013KT 10SM SCT050 SCT065 SCT080 22/14 A2993 RMK AO2 T02200144
KBKD 240055Z AUTO 16010KT 10SM SCT048 BKN055 BKN065 23/14 A2993 RMK AO2 T02250144
KBKD 240035Z AUTO 16009KT 10SM BKN048 BKN075 23/14 A2993 RMK AO2 T02310143
KBKD 240015Z AUTO 17007KT 10SM SCT060 BKN075 BKN095 24/14 A2993 RMK AO2 T02350141
KBKD 232355Z AUTO 16014G17KT 10SM SCT050 BKN075 OVC095 24/14 A2993 RMK AO2 T02350140 10268 20235
KBKD 232335Z AUTO 16012G19KT 10SM SCT050 SCT065 BKN075 24/14 A2993 RMK AO2 LTG DSNT NE T02390138
KBKD 232315Z AUTO 17010G17KT 10SM SCT050 BKN065 BKN085 24/14 A2992 RMK AO2 T02420136
KBKD 232255Z AUTO 17010G14KT 10SM SCT050 BKN065 OVC085 25/14 A2992 RMK AO2 LTG DSNT NE T02470136
KBKD 232235Z AUTO 19013G17KT 10SM SCT048 BKN050 OVC085 25/13 A2991 RMK AO2 T02510132
KBKD 232215Z AUTO 17007KT 10SM SCT060 SCT065 BKN100 25/13 A2992 RMK AO2 LTG DSNT NE T02450134
KBKD 232155Z AUTO 18012G19KT 10SM SCT055 SCT070 SCT100 25/13 A2992 RMK AO2 T02500131
KBKD 232135Z AUTO 19014G18KT 10SM SCT050 SCT055 BKN075 25/13 A2991 RMK AO2 T02540128
KBKD 232115Z AUTO 19011KT 10SM BKN050 BKN065 26/13 A2992 RMK AO2 T02560125
KBKD 232055Z AUTO 19010G17KT 10SM BKN050 BKN065 26/12 A2992 RMK AO2 T02580120
KBKD 232035Z AUTO 22008G19KT 10SM SCT050 BKN065 26/12 A2993 RMK AO2 LTG DSNT NE T02580115
KBKD 232015Z AUTO 21012G18KT 10SM BKN050 BKN075 26/12 A2994 RMK AO2 T02640116
KBKD 231955Z AUTO 23013G16KT 190V270 10SM BKN050 BKN070 27/12 A2995 RMK AO2 T02660115
KBKD 231935Z AUTO 22015G20KT 10SM SCT045 BKN050 BKN070 26/11 A2996 RMK AO2 T02560112
KBKD 231915Z AUTO 18010G17KT 10SM SCT043 SCT050 BKN070 25/12 A2996 RMK AO2 T02510124
KBKD 231855Z AUTO 22014G20KT 10SM SCT041 BKN050 25/12 A2998 RMK AO2 T02490123
KBKD 231835Z AUTO 19011G20KT 10SM SCT039 SCT045 25/13 A2998 RMK AO2 T02490127
KBKD 231815Z AUTO 19014G17KT 10SM CLR 25/13 A3000 RMK AO2 T02460131
KBKD 231755Z AUTO 21013G19KT 10SM SCT055 23/13 A3000 RMK AO2 T02340133 10240 20166
KBKD 231735Z AUTO 23011G17KT 10SM SCT036 OVC055 24/13 A3001 RMK AO2 T02400134
KBKD 231715Z AUTO 21011G17KT 10SM SCT032 SCT048 OVC055 22/13 A3002 RMK AO2 LTG DSNT NE T02190133
KBKD 231655Z AUTO 22009G14KT 7SM BKN032 OVC040 21/13 A3003 RMK AO2 T02130132
KBKD 231635Z AUTO 23010G16KT 10SM BKN030 OVC037 21/13 A3003 RMK AO2 LTG DSNT NE T02110133
KBKD 231615Z AUTO 23011G17KT 10SM OVC030 21/13 A3003 RMK AO2 LTG DSNT N AND NE T02080130
KBKD 231555Z AUTO 20012G19KT 10SM OVC028 21/13 A3003 RMK AO2 LTG DSNT NE T02090129
KBKD 231535Z AUTO 20012G19KT 10SM BKN028 BKN055 21/13 A3003 RMK AO2 T02140128
KBKD 231515Z AUTO 20016G19KT 10SM CLR 21/12 A3003 RMK AO2 LTG DSNT NE T02060124
KBKD 231455Z AUTO 19012KT 10SM CLR 20/12 A3002 RMK AO2 LTG DSNT NE T02000121
KBKD 231435Z AUTO 19011G18KT 10SM SCT095 19/11 A3002 RMK AO2 LTG DSNT NE T01920113
KBKD 231415Z AUTO 18009KT 10SM SCT095 17/10 A3002 RMK AO2 LTG DSNT NE T01730101
KBKD 231355Z AUTO 17009KT 10SM CLR 17/10 A3001 RMK AO2 LTG DSNT NE AND E T01700095
KBKD 231335Z AUTO 17008G16KT 10SM SCT032 17/09 A3000 RMK AO2 LTG DSNT NE T01700091
KBKD 231315Z AUTO 16009KT 10SM CLR 17/09 A3000 RMK AO2 LTG DSNT NE T01690090
KBKD 231255Z AUTO 16010KT 10SM SCT036 17/09 A2999 RMK AO2 T01670088
KBKD 231235Z AUTO 16011KT 10SM VCTS BKN036 17/09 A2999 RMK AO2 LTG DSNT NE T01700088
KBKD 231215Z AUTO 16012KT 10SM VCTS OVC038 17/09 A2998 RMK AO2 LTG DSNT NE T01720090
KBKD 231155Z AUTO 16009KT 10SM BKN038 OVC110 17/09 A2998 RMK AO2 LTG DSNT N AND NW 60002 70002 T01710087 10185 20169
KBKD 231135Z AUTO 16008KT 10SM SCT040 OVC110 17/09 A2998 RMK AO2 LTG DSNT NW T01700087
KBKD 231115Z AUTO 17008G14KT 10SM BKN038 OVC100 17/09 A2997 RMK AO2 LTG DSNT SE W AND NW T01700088
KBKD 231055Z AUTO 16009KT 10SM BKN038 OVC110 17/09 A2996 RMK AO2 LTG DSNT W T01700089
KBKD 231035Z AUTO 16008KT 10SM BKN038 OVC110 17/09 A2996 RMK AO2 T01700088
KBKD 231015Z AUTO 19008KT 10SM BKN110 17/09 A2996 RMK AO2 T01700090
KBKD 230955Z AUTO 18012KT 10SM CLR 17/09 A2995 RMK AO2 T01720090
KBKD 230935Z AUTO 18013G17KT 10SM SCT110 18/09 A2995 RMK AO2 T01750092